Charlesbourg, Canada
Current Conditions -  °F | °C
As of 11:00 AM on Thursday 18 Dec 2014 (Local Time) from CYQB Reporting Station
Light Snow Light Snow  
Wind Chill: 30°   Ceiling: 1400
Heat Index: 30°   Visibility: 1.5mi
Dew Point: 28°   Wind: 2mph
Humidity: 93%   Direction: NA
Pressure: 29.78"   Gusts: NA
Location:  46.86°N, 71.27°W
Report Text: CYQB 181600Z VRB02KT 1 1/2SM -SN BR FEW006 BKN014 OVC030 M01/M02 A2978 RMK SF2SC4SC2 SLP087
Loading
Personal Weather Stations






























Interactive Weather Map New forecast layout! Learn more

10-Day Weather Forecast

Advertisements
Track Severe Weather on mobile